Time;durP1;ratioP1;P1;durP2;ratioP2;P2;SDS_P1;SDS_P2;PMS_P1;PMS_P2;Temp;Humidity;BMP_temperature;BMP_pressure;BME280_temperature;BME280_humidity;BME280_pressure;Samples;Min_cycle;Max_cycle;Signal;HPM_P1;HPM_P2
2022/09/11 00:01:15;;;;;;;54.97;31.33;;;12.90;99.90;;;;;;5010946;28;20037;-83
2022/09/11 00:03:43;;;;;;;48.33;29.73;;;12.90;99.90;;;;;;4994582;28;20026;-83
2022/09/11 00:06:12;;;;;;;45.85;31.38;;;12.90;99.90;;;;;;4996185;28;20367;-83
2022/09/11 00:08:39;;;;;;;51.17;33.13;;;12.90;99.90;;;;;;4994070;28;20026;-83
2022/09/11 00:11:10;;;;;;;61.17;36.00;;;12.90;99.90;;;;;;4977996;28;20035;-82
2022/09/11 00:13:37;;;;;;;46.60;30.77;;;12.90;99.90;;;;;;4994465;28;20089;-82
2022/09/11 00:16:06;;;;;;;52.15;33.78;;;12.90;99.90;;;;;;4975021;28;20035;-83
2022/09/11 00:18:34;;;;;;;63.90;36.90;;;12.90;99.90;;;;;;4994585;28;20080;-82
2022/09/11 00:21:02;;;;;;;65.43;34.47;;;12.90;99.90;;;;;;4994597;28;20098;-83
2022/09/11 00:23:28;;;;;;;57.03;33.28;;;12.90;99.90;;;;;;5002652;28;20042;-82
2022/09/11 00:25:54;;;;;;;56.58;34.10;;;12.90;99.90;;;;;;4993671;28;20034;-82
2022/09/11 00:28:23;;;;;;;60.38;35.13;;;12.90;99.90;;;;;;4990966;28;20588;-82
2022/09/11 00:31:06;;;;;;;56.35;33.85;;;12.90;99.90;;;;;;4993602;28;20397;-83
2022/09/11 00:33:33;;;;;;;52.17;33.30;;;13.00;99.90;;;;;;4992153;28;20037;-83
2022/09/11 00:36:02;;;;;;;55.53;35.92;;;12.90;99.90;;;;;;4977999;28;20057;-83
2022/09/11 00:38:30;;;;;;;52.40;33.88;;;13.00;99.90;;;;;;4994784;28;20037;-82
2022/09/11 00:40:59;;;;;;;52.35;32.70;;;13.00;99.90;;;;;;4993743;28;20035;-83
2022/09/11 00:43:26;;;;;;;54.92;33.75;;;12.90;99.90;;;;;;4993522;28;20034;-83
2022/09/11 00:46:03;;;;;;;55.47;33.97;;;13.00;99.90;;;;;;4993879;28;20442;-83
2022/09/11 00:48:35;;;;;;;64.85;34.67;;;13.00;99.90;;;;;;4994075;28;20036;-82
2022/09/11 00:51:03;;;;;;;54.05;34.15;;;12.90;99.90;;;;;;4976792;28;20031;-82
2022/09/11 00:53:32;;;;;;;58.95;35.53;;;12.90;99.90;;;;;;4988244;28;20066;-83
2022/09/11 00:56:02;;;;;;;61.17;35.25;;;13.00;99.90;;;;;;4993271;28;21004;-83
2022/09/11 00:58:34;;;;;;;66.88;36.70;;;12.90;99.90;;;;;;5006955;28;20029;-83
2022/09/11 01:01:02;;;;;;;59.13;37.47;;;12.90;99.90;;;;;;4993245;28;20414;-82
2022/09/11 01:03:29;;;;;;;65.85;36.58;;;12.90;99.90;;;;;;4993512;28;20030;-83
2022/09/11 01:05:55;;;;;;;62.13;37.08;;;12.90;99.90;;;;;;4993417;28;20060;-83
2022/09/11 01:08:21;;;;;;;59.40;37.97;;;12.90;99.90;;;;;;4981391;28;20057;-82
2022/09/11 01:11:19;;;;;;;62.55;37.03;;;12.90;99.90;;;;;;4993410;28;20046;-82
2022/09/11 01:13:58;;;;;;;71.50;39.17;;;12.90;99.90;;;;;;4974482;28;20045;-82
2022/09/11 01:17:04;;;;;;;67.45;39.17;;;12.90;99.90;;;;;;4972237;28;20041;-82
2022/09/11 01:19:55;;;;;;;80.03;40.63;;;12.90;99.90;;;;;;4989932;28;20080;-82
2022/09/11 01:22:48;;;;;;;66.75;40.55;;;12.90;99.90;;;;;;4979261;28;20027;-83
2022/09/11 01:25:27;;;;;;;74.65;41.50;;;12.90;99.90;;;;;;4989556;28;20702;-83
2022/09/11 01:32:04;;;;;;;72.95;40.53;;;12.90;99.90;;;;;;4993467;28;20114;-83
2022/09/11 01:34:34;;;;;;;70.45;41.55;;;12.90;99.90;;;;;;4976087;28;20092;-83
2022/09/11 01:37:05;;;;;;;72.43;39.57;;;12.90;99.90;;;;;;4993072;28;20026;-83
2022/09/11 01:39:42;;;;;;;84.28;45.20;;;12.90;99.90;;;;;;4992879;28;20273;-83
2022/09/11 01:42:13;;;;;;;83.22;45.15;;;12.90;99.90;;;;;;4991613;28;20105;-83
2022/09/11 01:44:49;;;;;;;85.55;46.17;;;12.90;99.90;;;;;;4986222;28;20117;-83
2022/09/11 01:47:17;;;;;;;93.78;48.45;;;12.90;99.90;;;;;;4976540;28;20041;-82
2022/09/11 01:50:03;;;;;;;86.28;46.53;;;12.90;99.90;;;;;;4992210;28;20041;-83
2022/09/11 01:52:35;;;;;;;91.22;47.97;;;12.90;99.90;;;;;;4988925;28;20042;-83
2022/09/11 01:55:17;;;;;;;91.22;47.88;;;12.90;99.90;;;;;;4992450;28;20032;-84
2022/09/11 01:58:16;;;;;;;91.63;48.38;;;12.90;99.90;;;;;;4992855;28;20042;-83
2022/09/11 02:00:48;;;;;;;95.55;49.45;;;12.90;99.90;;;;;;4959775;28;20042;-83
2022/09/11 02:04:05;;;;;;;96.35;49.45;;;12.90;99.90;;;;;;4992473;28;20033;-83
2022/09/11 02:06:45;;;;;;;97.90;51.53;;;12.90;99.90;;;;;;4996367;28;20034;-83
2022/09/11 02:09:15;;;;;;;102.60;52.13;;;12.90;99.90;;;;;;4992043;28;20058;-83
2022/09/11 02:11:44;;;;;;;99.90;50.17;;;12.90;99.90;;;;;;4992202;28;20030;-83
2022/09/11 02:14:30;;;;;;;107.93;54.70;;;12.90;99.90;;;;;;4987746;28;20506;-83
2022/09/11 02:17:48;;;;;;;108.00;54.50;;;12.90;99.90;;;;;;4992571;28;20739;-83
2022/09/11 02:20:14;;;;;;;106.90;53.47;;;12.90;99.90;;;;;;4971988;28;20023;-83
2022/09/11 02:22:42;;;;;;;117.05;56.13;;;12.90;99.90;;;;;;4955618;28;20023;-83
2022/09/11 02:25:08;;;;;;;107.95;54.28;;;12.90;99.90;;;;;;4964965;28;20034;-84
2022/09/11 02:27:35;;;;;;;117.03;57.33;;;12.90;99.90;;;;;;4992134;28;20041;-83
2022/09/11 02:30:01;;;;;;;113.40;55.75;;;12.90;99.90;;;;;;4992001;28;20374;-82
2022/09/11 02:32:32;;;;;;;115.63;56.78;;;12.90;99.90;;;;;;4992227;28;20069;-83
2022/09/11 02:34:59;;;;;;;120.82;56.65;;;12.90;99.90;;;;;;4991489;28;20038;-83
2022/09/11 02:37:37;;;;;;;115.32;55.53;;;12.90;99.90;;;;;;4991870;28;20042;-84
2022/09/11 02:40:18;;;;;;;127.30;58.20;;;12.90;99.90;;;;;;4991490;28;20022;-83
2022/09/11 02:43:00;;;;;;;125.03;57.60;;;12.90;99.90;;;;;;4982745;28;20034;-83
2022/09/11 02:45:55;;;;;;;122.25;56.95;;;12.90;99.90;;;;;;4988503;28;20034;-83
2022/09/11 02:48:35;;;;;;;131.73;59.40;;;12.90;99.90;;;;;;4978319;28;20034;-83
2022/09/11 02:51:27;;;;;;;128.50;56.55;;;12.90;99.90;;;;;;5007636;28;20114;-82
2022/09/11 02:54:12;;;;;;;130.57;57.92;;;12.90;99.90;;;;;;4973254;28;20027;-83
2022/09/11 02:57:02;;;;;;;134.38;58.95;;;12.80;99.90;;;;;;4996489;28;20022;-83
2022/09/11 02:59:37;;;;;;;133.73;58.70;;;12.90;99.90;;;;;;4986598;28;20146;-83
2022/09/11 03:02:11;;;;;;;128.93;58.65;;;12.90;99.90;;;;;;4974704;28;20030;-83
2022/09/11 03:04:37;;;;;;;137.63;59.67;;;12.90;99.90;;;;;;4991184;28;20061;-83
2022/09/11 03:07:03;;;;;;;144.63;61.83;;;12.90;99.90;;;;;;4975328;28;20046;-83
2022/09/11 03:09:30;;;;;;;146.27;61.97;;;12.90;99.90;;;;;;4991326;28;20026;-83
2022/09/11 03:12:01;;;;;;;141.65;61.40;;;12.90;99.90;;;;;;4991836;28;20023;-83
2022/09/11 03:14:28;;;;;;;154.18;62.47;;;12.90;99.90;;;;;;4997498;28;20107;-83
2022/09/11 03:16:54;;;;;;;153.82;63.92;;;12.90;99.90;;;;;;4991661;28;20042;-83
2022/09/11 03:19:20;;;;;;;154.63;62.30;;;12.90;99.90;;;;;;4973781;28;20027;-83
2022/09/11 03:21:46;;;;;;;164.25;65.07;;;12.90;99.90;;;;;;4991586;28;20054;-83
2022/09/11 03:24:15;;;;;;;155.05;63.92;;;12.90;99.90;;;;;;4981493;28;20030;-83
2022/09/11 03:26:42;;;;;;;150.30;61.00;;;12.90;99.90;;;;;;4991457;28;20085;-82
2022/09/11 03:29:08;;;;;;;157.35;62.90;;;12.80;99.90;;;;;;4984392;28;20053;-83
2022/09/11 03:31:35;;;;;;;141.10;59.95;;;12.90;99.90;;;;;;4991211;28;20042;-83
2022/09/11 03:34:01;;;;;;;155.25;63.17;;;12.90;99.90;;;;;;4990614;28;20708;-83
2022/09/11 03:36:27;;;;;;;144.48;62.22;;;12.90;99.90;;;;;;4990415;28;20096;-82
2022/09/11 03:38:54;;;;;;;141.68;58.63;;;12.90;99.90;;;;;;4991039;28;20058;-83
2022/09/11 03:41:20;;;;;;;149.63;61.83;;;12.80;99.90;;;;;;4974323;28;20034;-83
2022/09/11 03:43:46;;;;;;;138.30;57.88;;;12.90;99.90;;;;;;4990924;28;20424;-83
2022/09/11 03:46:12;;;;;;;148.57;59.35;;;12.90;99.90;;;;;;4974916;28;20359;-83
2022/09/11 03:48:38;;;;;;;141.55;58.00;;;12.90;99.90;;;;;;4974617;28;20037;-82
2022/09/11 03:51:04;;;;;;;141.85;57.88;;;12.80;99.90;;;;;;4986160;28;20085;-82
2022/09/11 03:53:31;;;;;;;143.95;55.95;;;12.80;99.90;;;;;;4991067;28;20034;-83
2022/09/11 03:55:59;;;;;;;141.88;57.50;;;12.80;99.90;;;;;;4997658;28;20026;-83
2022/09/11 03:58:25;;;;;;;149.20;59.03;;;12.90;99.90;;;;;;4987474;28;20030;-82
2022/09/11 04:00:51;;;;;;;142.55;58.47;;;12.80;99.90;;;;;;4985791;28;20783;-83
2022/09/11 04:03:18;;;;;;;146.45;58.88;;;12.90;99.90;;;;;;4990660;28;20637;-82
2022/09/11 04:05:56;;;;;;;142.82;58.25;;;12.80;99.90;;;;;;4993329;28;20898;-83
2022/09/11 04:08:22;;;;;;;149.05;59.10;;;12.90;99.90;;;;;;5003057;28;20042;-82
2022/09/11 04:10:54;;;;;;;147.73;58.53;;;12.90;99.90;;;;;;4993801;28;20054;-82
2022/09/11 04:13:24;;;;;;;145.32;58.38;;;12.80;99.90;;;;;;4978267;28;20037;-82
2022/09/11 04:15:50;;;;;;;146.13;59.28;;;12.90;99.90;;;;;;5003349;28;20101;-82
2022/09/11 04:18:17;;;;;;;142.98;56.03;;;12.80;99.90;;;;;;4994504;28;20022;-82
2022/09/11 04:20:42;;;;;;;146.20;56.13;;;12.80;99.90;;;;;;4994471;28;20096;-82
2022/09/11 04:23:08;;;;;;;133.43;55.20;;;12.80;99.90;;;;;;4980663;28;20030;-82
2022/09/11 04:25:34;;;;;;;144.30;56.03;;;12.70;99.90;;;;;;4994301;28;20401;-83
2022/09/11 04:28:02;;;;;;;140.23;55.67;;;12.80;99.90;;;;;;4993676;28;20038;-83
2022/09/11 04:30:27;;;;;;;138.05;55.47;;;12.70;99.90;;;;;;4993738;28;20034;-83
2022/09/11 04:32:53;;;;;;;144.15;57.65;;;12.80;99.90;;;;;;4994183;28;20034;-83
2022/09/11 04:35:19;;;;;;;133.15;55.00;;;12.80;99.90;;;;;;4977497;28;20637;-83
2022/09/11 04:37:51;;;;;;;135.85;54.83;;;12.70;99.90;;;;;;4998760;28;20042;-83
2022/09/11 04:40:16;;;;;;;124.30;51.88;;;12.70;99.90;;;;;;4994156;28;20034;-83
2022/09/11 04:42:43;;;;;;;133.52;52.50;;;12.80;99.90;;;;;;5003842;28;20026;-83
2022/09/11 04:45:09;;;;;;;142.02;55.45;;;12.80;99.90;;;;;;4999204;28;20048;-83
2022/09/11 04:47:35;;;;;;;126.15;53.85;;;12.80;99.90;;;;;;4994010;28;20041;-83
2022/09/11 04:50:01;;;;;;;127.72;54.17;;;12.80;99.90;;;;;;4993412;28;20026;-83
2022/09/11 04:52:27;;;;;;;128.50;54.85;;;12.80;99.90;;;;;;4993704;28;20486;-83
2022/09/11 04:54:53;;;;;;;121.47;51.80;;;12.80;99.90;;;;;;4988067;28;20038;-85
2022/09/11 04:57:19;;;;;;;130.60;53.85;;;12.80;99.90;;;;;;4996606;28;20018;-85
2022/09/11 04:59:44;;;;;;;129.23;55.63;;;12.80;99.90;;;;;;4994164;28;20084;-85
2022/09/11 05:02:11;;;;;;;131.98;53.38;;;12.80;99.90;;;;;;4973140;28;20029;-85
2022/09/11 05:04:40;;;;;;;130.40;54.88;;;12.80;99.90;;;;;;4993614;28;20033;-86
2022/09/11 05:07:06;;;;;;;134.13;53.35;;;12.80;99.90;;;;;;4986469;28;20018;-86
2022/09/11 05:09:33;;;;;;;126.40;51.97;;;12.80;99.90;;;;;;4968765;28;20101;-85
2022/09/11 05:12:01;;;;;;;123.53;52.00;;;12.80;99.90;;;;;;4993376;28;20023;-86
2022/09/11 05:14:31;;;;;;;125.13;51.05;;;12.80;99.90;;;;;;4976059;28;20744;-86
2022/09/11 05:16:58;;;;;;;111.35;49.40;;;12.80;99.90;;;;;;4977236;28;20030;-86
2022/09/11 05:19:26;;;;;;;118.35;50.63;;;12.80;99.90;;;;;;4990159;28;20133;-85
2022/09/11 05:21:51;;;;;;;119.65;51.45;;;12.80;99.90;;;;;;4986493;28;20114;-85
2022/09/11 05:24:17;;;;;;;114.78;50.67;;;12.90;99.90;;;;;;4987913;28;20022;-85
2022/09/11 05:26:43;;;;;;;120.25;48.72;;;12.80;99.90;;;;;;4992927;28;20026;-86
2022/09/11 05:29:12;;;;;;;114.35;48.90;;;12.80;99.90;;;;;;4977411;28;20030;-84
2022/09/11 05:31:44;;;;;;;103.70;47.90;;;12.80;99.90;;;;;;4990799;28;20030;-85
2022/09/11 05:34:13;;;;;;;102.75;47.20;;;12.90;99.90;;;;;;4985310;28;20061;-85
2022/09/11 05:36:40;;;;;;;95.07;44.70;;;12.90;99.90;;;;;;4992490;28;20084;-85
2022/09/11 05:39:08;;;;;;;107.47;47.00;;;12.90;99.90;;;;;;4988738;28;20536;-86
2022/09/11 05:41:34;;;;;;;100.88;45.38;;;12.90;99.90;;;;;;4974703;28;20109;-85
2022/09/11 05:44:00;;;;;;;104.65;46.40;;;12.90;99.90;;;;;;4980815;28;20114;-86
2022/09/11 05:46:27;;;;;;;101.72;46.33;;;12.90;99.90;;;;;;4991913;28;20027;-86
2022/09/11 05:48:58;;;;;;;103.22;47.08;;;12.90;99.90;;;;;;4989947;28;20050;-85
2022/09/11 05:51:24;;;;;;;103.53;46.83;;;13.00;99.90;;;;;;4986591;28;20037;-86
2022/09/11 05:53:54;;;;;;;97.38;45.35;;;12.90;99.90;;;;;;4991605;28;20113;-87
2022/09/11 05:56:22;;;;;;;96.13;43.35;;;12.90;99.90;;;;;;4974970;28;20023;-86
2022/09/11 05:58:51;;;;;;;99.38;44.65;;;12.90;99.90;;;;;;4991922;28;20018;-86
2022/09/11 06:01:20;;;;;;;109.68;46.13;;;12.90;99.90;;;;;;4991773;28;20101;-85
2022/09/11 06:03:52;;;;;;;101.18;44.80;;;12.90;99.90;;;;;;4972456;28;20022;-86
2022/09/11 06:06:22;;;;;;;100.88;45.67;;;12.90;99.90;;;;;;4994264;28;20134;-86
2022/09/11 06:08:49;;;;;;;104.50;46.58;;;12.90;99.90;;;;;;4990766;28;20382;-86
2022/09/11 06:11:16;;;;;;;98.95;45.03;;;12.90;99.90;;;;;;4987912;28;20023;-86
2022/09/11 06:13:45;;;;;;;92.63;44.28;;;13.00;99.90;;;;;;4985140;28;20031;-86
2022/09/11 06:16:20;;;;;;;89.38;42.75;;;13.00;99.90;;;;;;4979586;28;20037;-86
2022/09/11 06:18:48;;;;;;;85.38;39.47;;;13.00;99.90;;;;;;4977752;28;20031;-85
2022/09/11 06:21:22;;;;;;;84.43;39.10;;;13.10;99.90;;;;;;5001402;28;20559;-86
2022/09/11 06:23:58;;;;;;;78.28;38.58;;;13.10;99.90;;;;;;4995538;28;21635;-87
2022/09/11 06:26:26;;;;;;;77.38;37.72;;;13.10;99.90;;;;;;4989667;28;20121;-86
2022/09/11 06:28:53;;;;;;;74.82;36.42;;;13.10;99.90;;;;;;4968623;28;20031;-86
2022/09/11 06:31:22;;;;;;;66.85;34.33;;;13.20;99.90;;;;;;4984842;28;20054;-86
2022/09/11 06:33:49;;;;;;;66.30;34.25;;;13.20;99.90;;;;;;4990556;28;20134;-86
2022/09/11 06:36:18;;;;;;;59.55;32.45;;;13.30;99.90;;;;;;4987597;28;20034;-87
2022/09/11 06:38:45;;;;;;;56.17;32.38;;;13.30;99.90;;;;;;4978115;28;20022;-87
2022/09/11 06:41:15;;;;;;;56.55;33.17;;;13.40;99.90;;;;;;4990966;28;20018;-87
2022/09/11 06:43:42;;;;;;;56.75;32.70;;;13.50;99.90;;;;;;4990643;28;20514;-86
2022/09/11 06:46:13;;;;;;;54.88;31.58;;;13.70;99.90;;;;;;4988500;28;20065;-87
2022/09/11 06:48:40;;;;;;;46.88;30.02;;;13.70;99.90;;;;;;4983865;28;20058;-87
2022/09/11 06:51:10;;;;;;;45.90;29.80;;;13.80;99.90;;;;;;4990724;28;20029;-86
2022/09/11 06:53:36;;;;;;;51.42;31.58;;;13.90;99.90;;;;;;4976431;28;20034;-86
2022/09/11 06:56:08;;;;;;;47.70;30.52;;;13.90;99.90;;;;;;4993670;28;20748;-87
2022/09/11 06:58:34;;;;;;;51.17;30.92;;;13.90;99.90;;;;;;4990264;28;20475;-87
2022/09/11 07:01:08;;;;;;;46.10;30.88;;;13.90;99.90;;;;;;4974436;28;20023;-86
2022/09/11 07:03:34;;;;;;;48.42;29.40;;;13.90;99.90;;;;;;4973434;28;20073;-86
2022/09/11 07:06:04;;;;;;;44.50;28.05;;;14.00;99.90;;;;;;4990063;28;20031;-86
2022/09/11 07:08:30;;;;;;;42.88;27.20;;;14.20;99.90;;;;;;4987273;28;20401;-86
2022/09/11 07:11:03;;;;;;;40.30;25.48;;;14.50;99.90;;;;;;4990798;28;20077;-86
2022/09/11 07:13:31;;;;;;;40.15;26.38;;;14.70;99.90;;;;;;4990017;28;20164;-86
2022/09/11 07:16:02;;;;;;;35.40;25.40;;;14.80;99.90;;;;;;4994849;28;20486;-86
2022/09/11 07:18:40;;;;;;;35.35;25.13;;;14.90;99.90;;;;;;4968019;28;20029;-86
2022/09/11 07:21:20;;;;;;;39.83;24.50;;;15.10;99.90;;;;;;4992887;28;20058;-86
2022/09/11 07:23:50;;;;;;;41.42;26.23;;;15.10;99.90;;;;;;4989395;28;20049;-87
2022/09/11 07:26:16;;;;;;;39.35;25.98;;;15.00;99.90;;;;;;4987914;28;20073;-86
2022/09/11 07:28:43;;;;;;;39.88;25.27;;;14.90;99.90;;;;;;4974721;28;20034;-86
2022/09/11 07:31:12;;;;;;;39.72;26.35;;;14.80;99.90;;;;;;4976626;28;20725;-86
2022/09/11 07:33:41;;;;;;;37.75;25.73;;;14.90;99.90;;;;;;4990654;28;20125;-86
2022/09/11 07:36:13;;;;;;;39.20;24.88;;;15.10;99.90;;;;;;4992248;28;20027;-86
2022/09/11 07:38:46;;;;;;;36.90;24.35;;;15.20;99.90;;;;;;4984966;28;20131;-87
2022/09/11 07:41:15;;;;;;;36.55;23.83;;;15.50;99.90;;;;;;4976296;28;20026;-86
2022/09/11 07:43:45;;;;;;;30.95;21.80;;;15.80;99.90;;;;;;4994158;28;20737;-86
2022/09/11 07:46:13;;;;;;;29.02;21.23;;;16.00;99.90;;;;;;4988990;28;20033;-86
2022/09/11 07:48:41;;;;;;;31.85;20.80;;;16.10;99.90;;;;;;4987021;28;20117;-87
2022/09/11 07:51:09;;;;;;;31.00;21.95;;;16.10;99.90;;;;;;5002795;28;20022;-86
2022/09/11 07:53:38;;;;;;;32.17;23.35;;;15.80;99.90;;;;;;4979019;28;20043;-86
2022/09/11 07:56:07;;;;;;;34.50;24.10;;;15.40;99.90;;;;;;4984317;28;20037;-87
2022/09/11 07:58:34;;;;;;;35.70;23.38;;;15.30;99.90;;;;;;4981898;28;20023;-86
2022/09/11 08:01:02;;;;;;;33.42;23.27;;;15.30;99.90;;;;;;4995088;28;20374;-87
2022/09/11 08:03:30;;;;;;;38.83;24.10;;;15.40;99.90;;;;;;4971712;28;20113;-86
2022/09/11 08:06:18;;;;;;;38.33;24.88;;;15.40;99.90;;;;;;4994859;28;20073;-87
2022/09/11 08:08:52;;;;;;;30.73;21.73;;;15.30;99.90;;;;;;4993920;28;20427;-86
2022/09/11 08:11:19;;;;;;;28.10;20.45;;;15.70;99.90;;;;;;4993729;28;20122;-87
2022/09/11 08:13:53;;;;;;;27.27;19.75;;;16.00;99.90;;;;;;4994375;28;20434;-86
2022/09/11 08:16:22;;;;;;;30.90;22.10;;;16.20;99.90;;;;;;4991685;28;20030;-87
2022/09/11 08:18:51;;;;;;;36.27;25.07;;;16.10;99.90;;;;;;4994598;28;20027;-86
2022/09/11 08:21:18;;;;;;;31.23;21.42;;;16.00;99.90;;;;;;4992948;28;20841;-87
2022/09/11 08:23:44;;;;;;;31.27;24.23;;;15.80;99.90;;;;;;4996347;28;20057;-86
2022/09/11 08:26:12;;;;;;;37.35;25.23;;;15.60;99.90;;;;;;4994245;28;20031;-86
2022/09/11 08:28:44;;;;;;;35.00;25.15;;;15.40;99.90;;;;;;4990791;28;20784;-87
2022/09/11 08:31:11;;;;;;;36.40;23.98;;;15.50;99.90;;;;;;4981290;28;20038;-86
2022/09/11 08:33:38;;;;;;;32.83;22.65;;;15.60;99.90;;;;;;4988109;28;20027;-86
2022/09/11 08:36:09;;;;;;;31.15;22.55;;;15.60;99.90;;;;;;4994530;28;20026;-86
2022/09/11 08:38:37;;;;;;;30.65;21.27;;;15.80;99.90;;;;;;5005409;28;20034;-86
2022/09/11 08:41:26;;;;;;;26.98;20.67;;;16.10;99.90;;;;;;4994228;28;20026;-86
2022/09/11 08:43:56;;;;;;;28.67;20.20;;;16.20;99.90;;;;;;4976665;28;20031;-87
2022/09/11 08:46:28;;;;;;;28.75;20.70;;;16.20;99.90;;;;;;4977662;28;20046;-87
2022/09/11 08:49:05;;;;;;;28.92;19.67;;;16.40;99.90;;;;;;4994182;28;20453;-87
2022/09/11 08:51:31;;;;;;;29.00;20.42;;;16.90;99.90;;;;;;4978737;28;20133;-87
2022/09/11 08:53:58;;;;;;;28.00;21.13;;;17.40;99.90;;;;;;4994266;28;20113;-87
2022/09/11 08:56:28;;;;;;;31.05;22.88;;;17.20;99.90;;;;;;4988050;28;20034;-86
2022/09/11 08:59:06;;;;;;;29.30;21.33;;;16.70;99.90;;;;;;4994490;28;20029;-87
2022/09/11 09:02:01;;;;;;;29.85;20.88;;;16.40;99.90;;;;;;4978483;28;20433;-87
2022/09/11 09:04:40;;;;;;;29.13;21.80;;;16.30;99.90;;;;;;4980896;28;20457;-87
2022/09/11 09:07:35;;;;;;;33.47;23.38;;;16.50;99.90;;;;;;4985066;28;20026;-87
2022/09/11 09:10:32;;;;;;;25.50;19.77;;;16.60;99.90;;;;;;4976977;28;20165;-87
2022/09/11 09:13:07;;;;;;;28.42;21.70;;;16.50;99.90;;;;;;4993479;28;20054;-87
2022/09/11 09:16:10;;;;;;;29.73;20.98;;;16.40;99.90;;;;;;4973263;28;20077;-87
2022/09/11 09:18:45;;;;;;;29.40;21.55;;;16.50;99.90;;;;;;4976311;28;20050;-86
2022/09/11 09:21:19;;;;;;;26.30;18.92;;;16.80;99.90;;;;;;4993872;28;20033;-87
2022/09/11 09:23:54;;;;;;;27.25;19.92;;;17.40;99.90;;;;;;4977137;28;20022;-87
2022/09/11 09:26:25;;;;;;;26.50;19.30;;;18.10;99.90;;;;;;4993302;28;20026;-87
2022/09/11 09:28:56;;;;;;;21.70;17.90;;;18.20;99.90;;;;;;4969027;28;20035;-87
2022/09/11 09:31:29;;;;;;;23.45;18.42;;;18.70;99.90;;;;;;4993143;28;20034;-86
2022/09/11 09:34:11;;;;;;;23.13;16.75;;;19.40;99.90;;;;;;4992817;28;20089;-86
2022/09/11 09:36:40;;;;;;;;;;;19.10;99.90;;;;;;4981929;28;20045;-87
2022/09/11 09:39:15;;;;;;;21.90;19.13;;;18.70;99.90;;;;;;5010352;28;20691;-87
2022/09/11 09:42:10;;;;;;;23.35;18.25;;;18.00;99.90;;;;;;4988474;28;20034;-85
2022/09/11 09:45:08;;;;;;;24.23;18.02;;;17.80;99.90;;;;;;4933429;28;20082;-86
2022/09/11 09:47:37;;;;;;;27.35;18.90;;;17.90;99.90;;;;;;4996214;28;20066;-86
2022/09/11 09:50:04;;;;;;;22.63;17.52;;;18.00;99.90;;;;;;4992680;28;20473;-86
2022/09/11 09:52:34;;;;;;;21.42;16.55;;;18.20;99.90;;;;;;4989754;28;20038;-86
2022/09/11 09:55:06;;;;;;;23.60;17.60;;;18.60;99.90;;;;;;4991054;28;20034;-86
2022/09/11 09:57:33;;;;;;;17.55;14.40;;;18.90;99.90;;;;;;4986804;28;20875;-86
2022/09/11 10:00:02;;;;;;;21.85;16.20;;;19.10;99.90;;;;;;4992752;28;20045;-86
2022/09/11 10:02:56;;;;;;;22.15;15.65;;;19.20;99.90;;;;;;4990347;28;20065;-86
2022/09/11 10:05:32;;;;;;;21.95;16.38;;;19.30;99.90;;;;;;4977331;28;20022;-86
2022/09/11 10:08:28;;;;;;;25.45;16.83;;;18.90;99.90;;;;;;5007535;28;20035;-87
2022/09/11 10:11:04;;;;;;;21.20;15.88;;;18.80;99.90;;;;;;4991433;28;20082;-86
2022/09/11 10:13:41;;;;;;;19.17;14.38;;;19.10;99.90;;;;;;4991764;28;20049;-86
2022/09/11 10:16:24;;;;;;;19.17;15.50;;;19.30;99.90;;;;;;4982507;28;20042;-87
2022/09/11 10:18:52;;;;;;;20.65;15.75;;;19.60;99.90;;;;;;4978825;28;20061;-86
2022/09/11 10:21:22;;;;;;;20.23;15.45;;;19.80;99.90;;;;;;4973931;28;20106;-87
2022/09/11 10:24:18;;;;;;;15.55;12.85;;;19.70;99.90;;;;;;4989807;28;20069;-87
2022/09/11 10:26:50;;;;;;;17.17;13.65;;;20.80;99.90;;;;;;4991845;28;20042;-87
2022/09/11 10:29:25;;;;;;;17.88;13.38;;;21.90;99.90;;;;;;4992611;28;20034;-86
2022/09/11 10:31:53;;;;;;;14.27;12.00;;;22.40;99.90;;;;;;4991681;28;20045;-87
2022/09/11 10:34:22;;;;;;;13.23;11.00;;;22.70;99.90;;;;;;4972529;28;20065;-87
2022/09/11 10:37:06;;;;;;;14.05;12.55;;;22.80;99.90;;;;;;4989427;28;20058;-87
2022/09/11 10:39:35;;;;;;;14.73;11.13;;;22.50;99.90;;;;;;4976226;28;20026;-87
2022/09/11 10:42:26;;;;;;;12.38;10.30;;;22.70;99.90;;;;;;4997739;28;20053;-87
2022/09/11 10:44:53;;;;;;;10.68;8.80;;;22.90;99.90;;;;;;4991884;28;20045;-87
2022/09/11 10:47:23;;;;;;;11.40;10.20;;;23.50;99.90;;;;;;4991400;28;20092;-87
2022/09/11 10:50:09;;;;;;;11.27;8.20;;;23.90;99.90;;;;;;4992197;28;20474;-87
2022/09/11 10:53:04;;;;;;;9.45;8.05;;;24.30;99.90;;;;;;4991885;28;20037;-88
2022/09/11 10:55:36;;;;;;;8.13;6.97;;;24.40;99.90;;;;;;4986133;28;20034;-87
2022/09/11 10:58:09;;;;;;;10.50;8.13;;;25.10;99.90;;;;;;4991799;28;20117;-88
2022/09/11 11:00:37;;;;;;;9.93;8.93;;;25.30;99.90;;;;;;4988033;28;20066;-88
2022/09/11 11:03:11;;;;;;;8.77;7.93;;;25.40;99.90;;;;;;4991694;28;20034;-87
2022/09/11 11:05:45;;;;;;;10.82;7.38;;;25.50;99.90;;;;;;5001415;28;20073;-87
2022/09/11 11:08:14;;;;;;;11.75;7.55;;;26.20;99.90;;;;;;4971845;28;20501;-87
2022/09/11 11:10:54;;;;;;;6.47;5.88;;;27.10;99.90;;;;;;4998795;28;20061;-87
2022/09/11 11:13:58;;;;;;;9.18;7.22;;;26.70;99.90;;;;;;4990200;28;20117;-87
2022/09/11 11:16:48;;;;;;;12.90;9.57;;;26.00;99.90;;;;;;4997780;28;20385;-87
2022/09/11 11:19:45;;;;;;;10.45;9.07;;;23.70;99.90;;;;;;4996117;28;20023;-87
2022/09/11 11:22:25;;;;;;;10.75;9.25;;;22.10;99.90;;;;;;4999255;28;20027;-86
2022/09/11 11:25:16;;;;;;;14.73;10.40;;;21.20;99.90;;;;;;5006490;28;20480;-87
2022/09/11 11:27:59;;;;;;;12.65;10.68;;;20.40;99.90;;;;;;4994003;28;20034;-87
2022/09/11 11:31:06;;;;;;;15.45;12.85;;;19.60;99.90;;;;;;4997645;28;20085;-87
2022/09/11 11:34:00;;;;;;;16.10;13.60;;;18.80;99.90;;;;;;4995022;28;20062;-86
2022/09/11 11:36:36;;;;;;;24.42;17.17;;;18.00;99.90;;;;;;4986254;28;20394;-87
2022/09/11 11:39:35;;;;;;;22.25;17.15;;;17.40;99.90;;;;;;4997685;28;20027;-86
2022/09/11 11:42:20;;;;;;;24.90;17.75;;;17.00;99.90;;;;;;4993035;28;20022;-87
2022/09/11 11:45:08;;;;;;;24.75;17.85;;;16.80;99.90;;;;;;4997641;28;20026;-87
2022/09/11 11:47:41;;;;;;;28.35;17.65;;;16.70;99.90;;;;;;5007424;28;20042;-87
2022/09/11 11:50:36;;;;;;;21.98;16.98;;;16.80;99.90;;;;;;4982200;28;20233;-86
2022/09/11 11:53:23;;;;;;;26.27;17.35;;;16.90;99.90;;;;;;4994080;28;20457;-86
2022/09/11 11:56:21;;;;;;;23.63;17.90;;;17.00;99.90;;;;;;4980030;28;20042;-86
2022/09/11 11:59:03;;;;;;;27.25;18.42;;;17.00;99.90;;;;;;4983206;28;20458;-87
2022/09/11 12:01:33;;;;;;;26.15;17.83;;;17.00;99.90;;;;;;4995426;28;20041;-86
2022/09/11 12:04:29;;;;;;;28.80;18.73;;;17.20;99.90;;;;;;4994732;28;20041;-86
2022/09/11 12:06:55;;;;;;;24.88;16.35;;;17.40;99.90;;;;;;4969089;28;20046;-87
2022/09/11 12:09:21;;;;;;;22.63;16.40;;;17.70;99.90;;;;;;4979199;28;20036;-86
2022/09/11 12:11:50;;;;;;;20.40;15.63;;;17.80;99.90;;;;;;4994625;28;20377;-87
2022/09/11 12:14:34;;;;;;;21.95;17.50;;;17.80;99.90;;;;;;4978511;28;20034;-86
2022/09/11 12:17:27;;;;;;;21.23;15.82;;;17.90;99.90;;;;;;4994322;28;20034;-86
2022/09/11 12:20:11;;;;;;;18.98;14.13;;;17.80;99.90;;;;;;4999391;28;20026;-87
2022/09/11 12:26:29;;;;;;;20.58;12.65;;;17.60;99.90;;;;;;4991163;28;20042;-87
2022/09/11 12:29:19;;;;;;;21.42;14.80;;;17.80;99.90;;;;;;4993223;28;20031;-87
2022/09/11 12:31:50;;;;;;;16.98;12.82;;;17.90;99.90;;;;;;4987755;28;20096;-87
2022/09/11 12:34:22;;;;;;;20.27;13.20;;;18.20;99.90;;;;;;4994491;28;20037;-87
2022/09/11 12:37:02;;;;;;;19.33;10.57;;;18.40;99.90;;;;;;4991668;28;20553;-87
2022/09/11 12:39:48;;;;;;;12.93;10.20;;;19.10;99.90;;;;;;4982420;28;20093;-87
2022/09/11 12:42:21;;;;;;;12.95;10.38;;;19.80;99.90;;;;;;4980829;28;20023;-87
2022/09/11 12:44:47;;;;;;;11.93;9.73;;;20.30;99.90;;;;;;4983561;28;20030;-88
2022/09/11 12:47:33;;;;;;;13.75;9.88;;;20.40;99.90;;;;;;4994240;28;20028;-87
2022/09/11 12:50:05;;;;;;;13.32;10.32;;;20.10;99.90;;;;;;4977795;28;20038;-87
2022/09/11 12:53:00;;;;;;;15.32;10.18;;;20.00;99.90;;;;;;4981584;28;20031;-87
2022/09/11 12:55:39;;;;;;;11.25;9.90;;;19.70;99.90;;;;;;5005078;28;20034;-87
2022/09/11 12:58:30;;;;;;;12.70;9.73;;;19.50;99.90;;;;;;4975532;28;20045;-87
2022/09/11 13:01:12;;;;;;;8.77;7.68;;;19.30;99.90;;;;;;4980997;28;20081;-87
2022/09/11 13:03:47;;;;;;;9.38;7.43;;;19.30;99.90;;;;;;4990419;28;20109;-88
2022/09/11 13:06:14;;;;;;;8.95;6.72;;;19.30;99.90;;;;;;4974733;28;20031;-87